sensor_id;sensor_type;location;lat;lon;timestamp;P1;durP1;ratioP1;P2;durP2;ratioP2
78312;SDS011;67568;47.438;21.408;2023-02-15T00:00:44;29.27;;;12.77;;
78312;SDS011;67568;47.438;21.408;2023-02-15T00:03:11;27.05;;;12.32;;
78312;SDS011;67568;47.438;21.408;2023-02-15T00:05:37;26.90;;;11.93;;
78312;SDS011;67568;47.438;21.408;2023-02-15T00:08:04;23.95;;;11.80;;
78312;SDS011;67568;47.438;21.408;2023-02-15T00:10:31;26.90;;;12.63;;
78312;SDS011;67568;47.438;21.408;2023-02-15T00:12:57;28.38;;;12.10;;
78312;SDS011;67568;47.438;21.408;2023-02-15T00:15:26;25.25;;;12.95;;
78312;SDS011;67568;47.438;21.408;2023-02-15T00:17:52;24.17;;;12.20;;
78312;SDS011;67568;47.438;21.408;2023-02-15T00:20:19;22.75;;;12.07;;
78312;SDS011;67568;47.438;21.408;2023-02-15T00:22:46;26.25;;;12.80;;
78312;SDS011;67568;47.438;21.408;2023-02-15T00:25:12;28.25;;;12.63;;
78312;SDS011;67568;47.438;21.408;2023-02-15T00:27:39;22.85;;;11.70;;
78312;SDS011;67568;47.438;21.408;2023-02-15T00:30:06;28.33;;;12.60;;
78312;SDS011;67568;47.438;21.408;2023-02-15T00:32:33;26.80;;;12.57;;
78312;SDS011;67568;47.438;21.408;2023-02-15T00:34:59;25.83;;;12.05;;
78312;SDS011;67568;47.438;21.408;2023-02-15T00:37:28;28.77;;;13.27;;
78312;SDS011;67568;47.438;21.408;2023-02-15T00:39:55;27.48;;;12.48;;
78312;SDS011;67568;47.438;21.408;2023-02-15T00:42:21;26.47;;;12.50;;
78312;SDS011;67568;47.438;21.408;2023-02-15T00:44:48;27.70;;;12.93;;
78312;SDS011;67568;47.438;21.408;2023-02-15T00:47:15;24.33;;;11.88;;
78312;SDS011;67568;47.438;21.408;2023-02-15T00:49:41;23.77;;;11.65;;
78312;SDS011;67568;47.438;21.408;2023-02-15T00:52:08;24.63;;;12.45;;
78312;SDS011;67568;47.438;21.408;2023-02-15T00:54:34;25.77;;;12.60;;
78312;SDS011;67568;47.438;21.408;2023-02-15T00:57:01;25.58;;;13.27;;
78312;SDS011;67568;47.438;21.408;2023-02-15T00:59:27;27.27;;;13.77;;
78312;SDS011;67568;47.438;21.408;2023-02-15T01:01:54;25.20;;;12.00;;
78312;SDS011;67568;47.438;21.408;2023-02-15T01:04:21;22.90;;;11.95;;
78312;SDS011;67568;47.438;21.408;2023-02-15T01:06:47;24.30;;;11.33;;
78312;SDS011;67568;47.438;21.408;2023-02-15T01:09:14;23.40;;;11.40;;
78312;SDS011;67568;47.438;21.408;2023-02-15T01:11:41;26.20;;;13.15;;
78312;SDS011;67568;47.438;21.408;2023-02-15T01:14:07;25.65;;;13.05;;
78312;SDS011;67568;47.438;21.408;2023-02-15T01:16:34;28.55;;;12.02;;
78312;SDS011;67568;47.438;21.408;2023-02-15T01:19:01;27.20;;;11.63;;
78312;SDS011;67568;47.438;21.408;2023-02-15T01:21:27;25.25;;;12.15;;
78312;SDS011;67568;47.438;21.408;2023-02-15T01:23:54;24.27;;;11.77;;
78312;SDS011;67568;47.438;21.408;2023-02-15T01:26:21;26.33;;;11.65;;
78312;SDS011;67568;47.438;21.408;2023-02-15T01:28:47;25.63;;;12.18;;
78312;SDS011;67568;47.438;21.408;2023-02-15T01:31:16;28.50;;;13.30;;
78312;SDS011;67568;47.438;21.408;2023-02-15T01:33:45;28.20;;;13.23;;
78312;SDS011;67568;47.438;21.408;2023-02-15T01:36:12;25.45;;;12.82;;
78312;SDS011;67568;47.438;21.408;2023-02-15T01:38:39;25.83;;;11.73;;
78312;SDS011;67568;47.438;21.408;2023-02-15T01:41:05;26.25;;;12.55;;
78312;SDS011;67568;47.438;21.408;2023-02-15T01:43:42;24.43;;;11.47;;
78312;SDS011;67568;47.438;21.408;2023-02-15T01:46:11;27.83;;;12.50;;
78312;SDS011;67568;47.438;21.408;2023-02-15T01:48:42;25.58;;;11.98;;
78312;SDS011;67568;47.438;21.408;2023-02-15T01:51:12;25.23;;;11.73;;
78312;SDS011;67568;47.438;21.408;2023-02-15T01:53:43;29.60;;;12.85;;
78312;SDS011;67568;47.438;21.408;2023-02-15T01:56:26;26.50;;;11.77;;
78312;SDS011;67568;47.438;21.408;2023-02-15T01:58:56;23.50;;;11.50;;
78312;SDS011;67568;47.438;21.408;2023-02-15T02:01:29;25.40;;;11.00;;
78312;SDS011;67568;47.438;21.408;2023-02-15T02:06:34;27.20;;;12.93;;
78312;SDS011;67568;47.438;21.408;2023-02-15T02:09:02;24.43;;;12.03;;
78312;SDS011;67568;47.438;21.408;2023-02-15T02:11:29;29.80;;;12.57;;
78312;SDS011;67568;47.438;21.408;2023-02-15T02:13:55;25.77;;;13.07;;
78312;SDS011;67568;47.438;21.408;2023-02-15T02:16:28;26.83;;;13.07;;
78312;SDS011;67568;47.438;21.408;2023-02-15T02:28:27;28.05;;;12.75;;
78312;SDS011;67568;47.438;21.408;2023-02-15T02:34:43;25.85;;;12.20;;
78312;SDS011;67568;47.438;21.408;2023-02-15T02:42:30;24.83;;;11.45;;
78312;SDS011;67568;47.438;21.408;2023-02-15T02:47:47;25.25;;;12.63;;
78312;SDS011;67568;47.438;21.408;2023-02-15T02:50:21;24.80;;;12.37;;
78312;SDS011;67568;47.438;21.408;2023-02-15T02:52:51;26.67;;;11.57;;
78312;SDS011;67568;47.438;21.408;2023-02-15T03:00:41;26.20;;;12.95;;
78312;SDS011;67568;47.438;21.408;2023-02-15T03:03:20;25.93;;;12.13;;
78312;SDS011;67568;47.438;21.408;2023-02-15T03:05:58;25.50;;;12.13;;
78312;SDS011;67568;47.438;21.408;2023-02-15T03:08:35;25.05;;;12.60;;
78312;SDS011;67568;47.438;21.408;2023-02-15T03:11:07;28.02;;;14.65;;
78312;SDS011;67568;47.438;21.408;2023-02-15T03:13:34;34.35;;;13.95;;
78312;SDS011;67568;47.438;21.408;2023-02-15T03:16:01;33.63;;;14.53;;
78312;SDS011;67568;47.438;21.408;2023-02-15T03:18:33;30.02;;;13.85;;
78312;SDS011;67568;47.438;21.408;2023-02-15T03:21:05;31.15;;;14.25;;
78312;SDS011;67568;47.438;21.408;2023-02-15T03:23:34;33.75;;;14.52;;
78312;SDS011;67568;47.438;21.408;2023-02-15T03:26:05;30.90;;;13.57;;
78312;SDS011;67568;47.438;21.408;2023-02-15T03:28:38;25.57;;;11.50;;
78312;SDS011;67568;47.438;21.408;2023-02-15T03:31:09;26.58;;;11.95;;
78312;SDS011;67568;47.438;21.408;2023-02-15T03:33:38;28.55;;;12.65;;
78312;SDS011;67568;47.438;21.408;2023-02-15T03:36:11;26.15;;;11.73;;
78312;SDS011;67568;47.438;21.408;2023-02-15T03:38:44;31.20;;;13.43;;
78312;SDS011;67568;47.438;21.408;2023-02-15T03:41:17;25.47;;;12.17;;
78312;SDS011;67568;47.438;21.408;2023-02-15T03:48:58;29.30;;;13.35;;
78312;SDS011;67568;47.438;21.408;2023-02-15T03:51:31;28.88;;;13.45;;
78312;SDS011;67568;47.438;21.408;2023-02-15T03:54:02;27.47;;;12.70;;
78312;SDS011;67568;47.438;21.408;2023-02-15T03:56:33;30.25;;;12.93;;
78312;SDS011;67568;47.438;21.408;2023-02-15T03:59:02;33.67;;;15.15;;
78312;SDS011;67568;47.438;21.408;2023-02-15T04:01:36;31.63;;;15.38;;
78312;SDS011;67568;47.438;21.408;2023-02-15T04:04:14;34.58;;;16.63;;
78312;SDS011;67568;47.438;21.408;2023-02-15T04:06:44;36.27;;;16.07;;
78312;SDS011;67568;47.438;21.408;2023-02-15T04:09:11;39.83;;;18.50;;
78312;SDS011;67568;47.438;21.408;2023-02-15T04:11:38;34.80;;;17.02;;
78312;SDS011;67568;47.438;21.408;2023-02-15T04:14:05;30.80;;;16.95;;
78312;SDS011;67568;47.438;21.408;2023-02-15T04:16:32;33.30;;;16.58;;
78312;SDS011;67568;47.438;21.408;2023-02-15T04:18:58;37.47;;;18.60;;
78312;SDS011;67568;47.438;21.408;2023-02-15T04:21:25;64.65;;;24.33;;
78312;SDS011;67568;47.438;21.408;2023-02-15T04:23:53;54.08;;;23.90;;
78312;SDS011;67568;47.438;21.408;2023-02-15T04:26:20;43.22;;;20.48;;
78312;SDS011;67568;47.438;21.408;2023-02-15T04:28:46;45.35;;;18.13;;
78312;SDS011;67568;47.438;21.408;2023-02-15T04:31:13;46.97;;;21.27;;
78312;SDS011;67568;47.438;21.408;2023-02-15T04:33:40;42.05;;;19.92;;
78312;SDS011;67568;47.438;21.408;2023-02-15T04:36:06;45.40;;;21.27;;
78312;SDS011;67568;47.438;21.408;2023-02-15T04:38:33;40.15;;;19.83;;
78312;SDS011;67568;47.438;21.408;2023-02-15T04:40:59;40.80;;;19.80;;
78312;SDS011;67568;47.438;21.408;2023-02-15T04:43:26;40.60;;;20.00;;
78312;SDS011;67568;47.438;21.408;2023-02-15T04:45:53;35.97;;;18.65;;
78312;SDS011;67568;47.438;21.408;2023-02-15T04:48:19;38.95;;;18.25;;
78312;SDS011;67568;47.438;21.408;2023-02-15T04:50:46;36.30;;;16.95;;
78312;SDS011;67568;47.438;21.408;2023-02-15T04:53:12;32.80;;;16.13;;
78312;SDS011;67568;47.438;21.408;2023-02-15T04:55:39;34.30;;;17.00;;
78312;SDS011;67568;47.438;21.408;2023-02-15T04:58:06;32.97;;;16.65;;
78312;SDS011;67568;47.438;21.408;2023-02-15T05:00:32;36.58;;;17.08;;
78312;SDS011;67568;47.438;21.408;2023-02-15T05:02:59;34.75;;;15.75;;
78312;SDS011;67568;47.438;21.408;2023-02-15T05:05:26;33.55;;;16.40;;
78312;SDS011;67568;47.438;21.408;2023-02-15T05:07:52;37.83;;;19.73;;
78312;SDS011;67568;47.438;21.408;2023-02-15T05:10:19;44.95;;;21.48;;
78312;SDS011;67568;47.438;21.408;2023-02-15T05:12:46;33.15;;;16.55;;
78312;SDS011;67568;47.438;21.408;2023-02-15T05:15:13;33.97;;;15.82;;
78312;SDS011;67568;47.438;21.408;2023-02-15T05:17:39;34.72;;;16.10;;
78312;SDS011;67568;47.438;21.408;2023-02-15T05:20:06;34.17;;;16.23;;
78312;SDS011;67568;47.438;21.408;2023-02-15T05:22:33;36.95;;;17.15;;
78312;SDS011;67568;47.438;21.408;2023-02-15T05:25:00;33.63;;;16.92;;
78312;SDS011;67568;47.438;21.408;2023-02-15T05:27:27;45.20;;;18.55;;
78312;SDS011;67568;47.438;21.408;2023-02-15T05:29:53;40.15;;;18.02;;
78312;SDS011;67568;47.438;21.408;2023-02-15T05:32:20;44.47;;;19.07;;
78312;SDS011;67568;47.438;21.408;2023-02-15T05:34:47;37.92;;;17.92;;
78312;SDS011;67568;47.438;21.408;2023-02-15T05:37:14;39.17;;;17.13;;
78312;SDS011;67568;47.438;21.408;2023-02-15T05:39:40;35.45;;;16.67;;
78312;SDS011;67568;47.438;21.408;2023-02-15T05:42:07;35.33;;;15.05;;
78312;SDS011;67568;47.438;21.408;2023-02-15T05:44:33;31.23;;;14.87;;
78312;SDS011;67568;47.438;21.408;2023-02-15T05:47:00;31.08;;;13.93;;
78312;SDS011;67568;47.438;21.408;2023-02-15T05:49:26;33.30;;;15.98;;
78312;SDS011;67568;47.438;21.408;2023-02-15T05:51:53;34.03;;;15.38;;
78312;SDS011;67568;47.438;21.408;2023-02-15T05:54:20;32.60;;;16.15;;
78312;SDS011;67568;47.438;21.408;2023-02-15T05:56:46;33.67;;;15.80;;
78312;SDS011;67568;47.438;21.408;2023-02-15T05:59:13;39.67;;;18.95;;
78312;SDS011;67568;47.438;21.408;2023-02-15T06:01:40;40.30;;;18.50;;
78312;SDS011;67568;47.438;21.408;2023-02-15T06:04:06;42.75;;;20.92;;
78312;SDS011;67568;47.438;21.408;2023-02-15T06:06:33;44.00;;;21.30;;
78312;SDS011;67568;47.438;21.408;2023-02-15T06:09:00;37.60;;;19.77;;
78312;SDS011;67568;47.438;21.408;2023-02-15T06:11:26;44.72;;;21.55;;
78312;SDS011;67568;47.438;21.408;2023-02-15T06:13:53;43.13;;;21.27;;
78312;SDS011;67568;47.438;21.408;2023-02-15T06:16:19;52.25;;;24.30;;
78312;SDS011;67568;47.438;21.408;2023-02-15T06:18:46;74.10;;;31.88;;
78312;SDS011;67568;47.438;21.408;2023-02-15T06:21:13;69.20;;;32.60;;
78312;SDS011;67568;47.438;21.408;2023-02-15T06:23:40;65.82;;;30.13;;
78312;SDS011;67568;47.438;21.408;2023-02-15T06:26:06;63.15;;;29.02;;
78312;SDS011;67568;47.438;21.408;2023-02-15T06:28:33;58.03;;;27.05;;
78312;SDS011;67568;47.438;21.408;2023-02-15T06:31:03;56.25;;;25.77;;
78312;SDS011;67568;47.438;21.408;2023-02-15T06:33:30;55.40;;;27.27;;
78312;SDS011;67568;47.438;21.408;2023-02-15T06:35:56;58.60;;;28.38;;
78312;SDS011;67568;47.438;21.408;2023-02-15T06:38:23;66.32;;;29.83;;
78312;SDS011;67568;47.438;21.408;2023-02-15T06:40:50;62.85;;;30.05;;
78312;SDS011;67568;47.438;21.408;2023-02-15T06:43:17;60.33;;;28.25;;
78312;SDS011;67568;47.438;21.408;2023-02-15T06:45:49;58.47;;;27.77;;
78312;SDS011;67568;47.438;21.408;2023-02-15T06:48:26;52.22;;;26.30;;
78312;SDS011;67568;47.438;21.408;2023-02-15T06:50:54;55.63;;;27.75;;
78312;SDS011;67568;47.438;21.408;2023-02-15T06:53:22;52.58;;;25.42;;
78312;SDS011;67568;47.438;21.408;2023-02-15T06:55:52;47.17;;;24.63;;
78312;SDS011;67568;47.438;21.408;2023-02-15T06:58:19;43.77;;;22.63;;
78312;SDS011;67568;47.438;21.408;2023-02-15T07:00:49;48.25;;;23.92;;
78312;SDS011;67568;47.438;21.408;2023-02-15T07:03:18;48.92;;;24.60;;
78312;SDS011;67568;47.438;21.408;2023-02-15T07:05:46;50.45;;;25.17;;
78312;SDS011;67568;47.438;21.408;2023-02-15T07:08:13;45.58;;;22.75;;
78312;SDS011;67568;47.438;21.408;2023-02-15T07:10:46;46.40;;;24.53;;
78312;SDS011;67568;47.438;21.408;2023-02-15T07:13:15;46.88;;;23.92;;
78312;SDS011;67568;47.438;21.408;2023-02-15T07:15:42;51.20;;;25.98;;
78312;SDS011;67568;47.438;21.408;2023-02-15T07:18:11;45.05;;;25.05;;
78312;SDS011;67568;47.438;21.408;2023-02-15T07:20:39;44.85;;;25.85;;
78312;SDS011;67568;47.438;21.408;2023-02-15T07:23:07;46.47;;;25.00;;
78312;SDS011;67568;47.438;21.408;2023-02-15T07:25:35;43.47;;;24.65;;
78312;SDS011;67568;47.438;21.408;2023-02-15T07:28:02;41.40;;;24.13;;
78312;SDS011;67568;47.438;21.408;2023-02-15T07:30:30;47.05;;;25.10;;
78312;SDS011;67568;47.438;21.408;2023-02-15T07:32:57;46.78;;;25.38;;
78312;SDS011;67568;47.438;21.408;2023-02-15T07:35:26;42.20;;;22.90;;
78312;SDS011;67568;47.438;21.408;2023-02-15T07:37:54;40.70;;;21.98;;
78312;SDS011;67568;47.438;21.408;2023-02-15T07:40:21;38.70;;;22.00;;
78312;SDS011;67568;47.438;21.408;2023-02-15T07:42:50;42.15;;;23.45;;
78312;SDS011;67568;47.438;21.408;2023-02-15T07:45:19;40.30;;;19.90;;
78312;SDS011;67568;47.438;21.408;2023-02-15T07:47:46;35.17;;;19.57;;
78312;SDS011;67568;47.438;21.408;2023-02-15T07:50:14;40.78;;;19.48;;
78312;SDS011;67568;47.438;21.408;2023-02-15T07:52:41;43.05;;;19.90;;
78312;SDS011;67568;47.438;21.408;2023-02-15T07:55:08;43.30;;;22.08;;
78312;SDS011;67568;47.438;21.408;2023-02-15T07:57:35;35.55;;;18.42;;
78312;SDS011;67568;47.438;21.408;2023-02-15T08:00:02;37.20;;;19.17;;
78312;SDS011;67568;47.438;21.408;2023-02-15T08:02:31;36.97;;;19.52;;
78312;SDS011;67568;47.438;21.408;2023-02-15T08:04:59;33.20;;;18.42;;
78312;SDS011;67568;47.438;21.408;2023-02-15T08:07:28;33.45;;;17.38;;
78312;SDS011;67568;47.438;21.408;2023-02-15T08:09:55;35.53;;;17.77;;
78312;SDS011;67568;47.438;21.408;2023-02-15T08:12:23;33.53;;;17.93;;
78312;SDS011;67568;47.438;21.408;2023-02-15T08:14:53;34.63;;;19.17;;
78312;SDS011;67568;47.438;21.408;2023-02-15T08:17:19;40.35;;;19.25;;
78312;SDS011;67568;47.438;21.408;2023-02-15T08:19:46;33.28;;;17.58;;
78312;SDS011;67568;47.438;21.408;2023-02-15T08:22:13;32.67;;;16.98;;
78312;SDS011;67568;47.438;21.408;2023-02-15T08:24:41;31.87;;;17.07;;
78312;SDS011;67568;47.438;21.408;2023-02-15T08:27:08;41.13;;;20.33;;
78312;SDS011;67568;47.438;21.408;2023-02-15T08:29:37;29.38;;;17.08;;
78312;SDS011;67568;47.438;21.408;2023-02-15T08:32:05;30.65;;;17.05;;
78312;SDS011;67568;47.438;21.408;2023-02-15T08:34:36;26.52;;;15.48;;
78312;SDS011;67568;47.438;21.408;2023-02-15T08:37:04;27.80;;;16.20;;
78312;SDS011;67568;47.438;21.408;2023-02-15T08:39:31;30.80;;;15.27;;
78312;SDS011;67568;47.438;21.408;2023-02-15T08:41:58;29.55;;;16.25;;
78312;SDS011;67568;47.438;21.408;2023-02-15T08:44:25;28.40;;;16.00;;
78312;SDS011;67568;47.438;21.408;2023-02-15T08:46:52;25.20;;;14.65;;
78312;SDS011;67568;47.438;21.408;2023-02-15T08:49:19;31.57;;;16.53;;
78312;SDS011;67568;47.438;21.408;2023-02-15T08:51:48;30.98;;;16.58;;
78312;SDS011;67568;47.438;21.408;2023-02-15T08:54:16;27.80;;;15.98;;
78312;SDS011;67568;47.438;21.408;2023-02-15T08:56:46;29.52;;;15.32;;
78312;SDS011;67568;47.438;21.408;2023-02-15T08:59:20;33.15;;;16.60;;
78312;SDS011;67568;47.438;21.408;2023-02-15T09:01:49;32.60;;;17.30;;
78312;SDS011;67568;47.438;21.408;2023-02-15T09:04:17;36.58;;;17.98;;
78312;SDS011;67568;47.438;21.408;2023-02-15T09:06:46;33.50;;;18.17;;
78312;SDS011;67568;47.438;21.408;2023-02-15T09:09:15;31.85;;;17.05;;
78312;SDS011;67568;47.438;21.408;2023-02-15T09:11:44;33.92;;;18.27;;
78312;SDS011;67568;47.438;21.408;2023-02-15T09:14:15;29.20;;;17.07;;
78312;SDS011;67568;47.438;21.408;2023-02-15T09:16:44;29.25;;;17.88;;
78312;SDS011;67568;47.438;21.408;2023-02-15T09:19:12;31.08;;;17.80;;
78312;SDS011;67568;47.438;21.408;2023-02-15T09:21:39;29.20;;;17.85;;
78312;SDS011;67568;47.438;21.408;2023-02-15T09:24:08;29.02;;;16.08;;
78312;SDS011;67568;47.438;21.408;2023-02-15T09:26:39;32.23;;;17.40;;
78312;SDS011;67568;47.438;21.408;2023-02-15T09:29:08;29.52;;;18.38;;
78312;SDS011;67568;47.438;21.408;2023-02-15T09:31:38;27.58;;;16.60;;
78312;SDS011;67568;47.438;21.408;2023-02-15T09:34:09;34.90;;;18.95;;
78312;SDS011;67568;47.438;21.408;2023-02-15T09:36:38;29.92;;;17.95;;
78312;SDS011;67568;47.438;21.408;2023-02-15T09:39:16;26.77;;;16.23;;
78312;SDS011;67568;47.438;21.408;2023-02-15T09:53:09;29.27;;;17.27;;
78312;SDS011;67568;47.438;21.408;2023-02-15T09:56:06;27.73;;;16.77;;
78312;SDS011;67568;47.438;21.408;2023-02-15T10:04:03;30.35;;;17.88;;
78312;SDS011;67568;47.438;21.408;2023-02-15T10:24:02;30.67;;;18.38;;
78312;SDS011;67568;47.438;21.408;2023-02-15T10:26:45;28.75;;;18.30;;
78312;SDS011;67568;47.438;21.408;2023-02-15T10:29:32;27.20;;;17.15;;
78312;SDS011;67568;47.438;21.408;2023-02-15T10:34:50;30.27;;;17.60;;
78312;SDS011;67568;47.438;21.408;2023-02-15T10:37:32;26.73;;;16.08;;
78312;SDS011;67568;47.438;21.408;2023-02-15T10:45:30;27.52;;;17.80;;
78312;SDS011;67568;47.438;21.408;2023-02-15T10:51:08;32.38;;;17.95;;
78312;SDS011;67568;47.438;21.408;2023-02-15T10:56:11;29.17;;;17.67;;
78312;SDS011;67568;47.438;21.408;2023-02-15T11:04:51;28.33;;;18.58;;
78312;SDS011;67568;47.438;21.408;2023-02-15T11:07:38;27.70;;;17.10;;
78312;SDS011;67568;47.438;21.408;2023-02-15T11:12:51;26.45;;;17.40;;
78312;SDS011;67568;47.438;21.408;2023-02-15T11:15:20;27.63;;;17.80;;
78312;SDS011;67568;47.438;21.408;2023-02-15T11:18:09;26.85;;;16.20;;
78312;SDS011;67568;47.438;21.408;2023-02-15T11:23:16;26.35;;;17.35;;
78312;SDS011;67568;47.438;21.408;2023-02-15T11:25:44;30.58;;;18.38;;
78312;SDS011;67568;47.438;21.408;2023-02-15T11:28:19;27.43;;;17.07;;
78312;SDS011;67568;47.438;21.408;2023-02-15T11:30:56;26.10;;;17.63;;
78312;SDS011;67568;47.438;21.408;2023-02-15T11:33:35;28.02;;;17.17;;
78312;SDS011;67568;47.438;21.408;2023-02-15T11:38:42;25.52;;;16.20;;
78312;SDS011;67568;47.438;21.408;2023-02-15T11:41:10;28.53;;;17.97;;
78312;SDS011;67568;47.438;21.408;2023-02-15T11:46:13;26.00;;;17.50;;
78312;SDS011;67568;47.438;21.408;2023-02-15T11:48:40;27.38;;;17.25;;
78312;SDS011;67568;47.438;21.408;2023-02-15T11:51:22;19.38;;;12.13;;
78312;SDS011;67568;47.438;21.408;2023-02-15T11:53:49;22.13;;;13.93;;
78312;SDS011;67568;47.438;21.408;2023-02-15T11:56:26;22.15;;;13.52;;
78312;SDS011;67568;47.438;21.408;2023-02-15T11:59:01;22.67;;;12.10;;
78312;SDS011;67568;47.438;21.408;2023-02-15T12:06:29;20.63;;;12.00;;
78312;SDS011;67568;47.438;21.408;2023-02-15T12:11:52;19.95;;;12.00;;
78312;SDS011;67568;47.438;21.408;2023-02-15T12:14:19;18.38;;;11.15;;
78312;SDS011;67568;47.438;21.408;2023-02-15T12:16:50;20.42;;;11.90;;
78312;SDS011;67568;47.438;21.408;2023-02-15T12:19:38;26.43;;;14.63;;
78312;SDS011;67568;47.438;21.408;2023-02-15T12:22:06;24.70;;;14.40;;
78312;SDS011;67568;47.438;21.408;2023-02-15T12:24:49;26.73;;;14.95;;
78312;SDS011;67568;47.438;21.408;2023-02-15T12:27:23;26.40;;;15.38;;
78312;SDS011;67568;47.438;21.408;2023-02-15T12:29:57;24.20;;;14.13;;
78312;SDS011;67568;47.438;21.408;2023-02-15T12:32:46;26.90;;;15.67;;
78312;SDS011;67568;47.438;21.408;2023-02-15T12:35:24;28.70;;;15.60;;
78312;SDS011;67568;47.438;21.408;2023-02-15T12:37:56;25.98;;;15.57;;
78312;SDS011;67568;47.438;21.408;2023-02-15T12:40:28;25.58;;;14.82;;
78312;SDS011;67568;47.438;21.408;2023-02-15T12:42:57;25.00;;;13.68;;
78312;SDS011;67568;47.438;21.408;2023-02-15T12:48:13;26.98;;;15.15;;
78312;SDS011;67568;47.438;21.408;2023-02-15T12:50:45;25.08;;;14.60;;
78312;SDS011;67568;47.438;21.408;2023-02-15T12:53:32;24.98;;;13.82;;
78312;SDS011;67568;47.438;21.408;2023-02-15T12:56:04;26.13;;;13.57;;
78312;SDS011;67568;47.438;21.408;2023-02-15T12:58:34;25.23;;;13.83;;
78312;SDS011;67568;47.438;21.408;2023-02-15T13:03:35;25.27;;;13.82;;
78312;SDS011;67568;47.438;21.408;2023-02-15T13:06:05;25.42;;;13.95;;
78312;SDS011;67568;47.438;21.408;2023-02-15T13:08:38;26.15;;;14.68;;
78312;SDS011;67568;47.438;21.408;2023-02-15T13:11:13;26.83;;;15.23;;
78312;SDS011;67568;47.438;21.408;2023-02-15T13:14:25;29.20;;;14.55;;
78312;SDS011;67568;47.438;21.408;2023-02-15T13:16:44;28.00;;;14.50;;
78312;SDS011;67568;47.438;21.408;2023-02-15T13:19:17;27.10;;;15.40;;
78312;SDS011;67568;47.438;21.408;2023-02-15T13:21:50;29.58;;;15.45;;
78312;SDS011;67568;47.438;21.408;2023-02-15T13:24:23;24.70;;;14.23;;
78312;SDS011;67568;47.438;21.408;2023-02-15T13:26:52;28.30;;;14.57;;
78312;SDS011;67568;47.438;21.408;2023-02-15T13:29:40;29.67;;;14.23;;
78312;SDS011;67568;47.438;21.408;2023-02-15T13:32:21;25.75;;;15.02;;
78312;SDS011;67568;47.438;21.408;2023-02-15T13:34:54;24.42;;;13.88;;
78312;SDS011;67568;47.438;21.408;2023-02-15T13:40:58;25.35;;;14.50;;
78312;SDS011;67568;47.438;21.408;2023-02-15T13:46:31;28.08;;;13.88;;
78312;SDS011;67568;47.438;21.408;2023-02-15T13:57:46;28.80;;;14.18;;
78312;SDS011;67568;47.438;21.408;2023-02-15T14:03:10;30.25;;;14.40;;
78312;SDS011;67568;47.438;21.408;2023-02-15T14:05:50;28.77;;;14.13;;
78312;SDS011;67568;47.438;21.408;2023-02-15T14:19:52;27.37;;;14.93;;
78312;SDS011;67568;47.438;21.408;2023-02-15T14:22:35;27.38;;;14.38;;
78312;SDS011;67568;47.438;21.408;2023-02-15T14:30:44;31.30;;;15.63;;
78312;SDS011;67568;47.438;21.408;2023-02-15T14:36:01;31.95;;;15.18;;
78312;SDS011;67568;47.438;21.408;2023-02-15T14:49:42;30.45;;;15.40;;
78312;SDS011;67568;47.438;21.408;2023-02-15T14:52:12;33.60;;;16.50;;
78312;SDS011;67568;47.438;21.408;2023-02-15T15:02:17;31.33;;;14.95;;
78312;SDS011;67568;47.438;21.408;2023-02-15T15:10:39;29.27;;;14.85;;
78312;SDS011;67568;47.438;21.408;2023-02-15T15:13:51;30.00;;;14.97;;
78312;SDS011;67568;47.438;21.408;2023-02-15T15:16:25;27.63;;;13.63;;
78312;SDS011;67568;47.438;21.408;2023-02-15T15:18:54;29.23;;;14.57;;
78312;SDS011;67568;47.438;21.408;2023-02-15T15:41:03;30.60;;;14.87;;
78312;SDS011;67568;47.438;21.408;2023-02-15T15:46:51;34.05;;;16.48;;
78312;SDS011;67568;47.438;21.408;2023-02-15T15:49:29;34.92;;;15.55;;
78312;SDS011;67568;47.438;21.408;2023-02-15T15:52:02;30.13;;;15.55;;
78312;SDS011;67568;47.438;21.408;2023-02-15T15:54:38;29.67;;;15.43;;
78312;SDS011;67568;47.438;21.408;2023-02-15T15:57:42;34.20;;;16.05;;
78312;SDS011;67568;47.438;21.408;2023-02-15T16:00:04;33.92;;;17.17;;
78312;SDS011;67568;47.438;21.408;2023-02-15T16:02:50;41.83;;;17.83;;
78312;SDS011;67568;47.438;21.408;2023-02-15T16:05:18;38.60;;;17.35;;
78312;SDS011;67568;47.438;21.408;2023-02-15T16:07:45;40.10;;;17.10;;
78312;SDS011;67568;47.438;21.408;2023-02-15T16:10:29;47.47;;;21.08;;
78312;SDS011;67568;47.438;21.408;2023-02-15T16:12:57;53.88;;;25.35;;
78312;SDS011;67568;47.438;21.408;2023-02-15T16:15:25;65.53;;;29.42;;
78312;SDS011;67568;47.438;21.408;2023-02-15T16:18:02;68.38;;;30.48;;
78312;SDS011;67568;47.438;21.408;2023-02-15T16:20:33;68.60;;;32.57;;
78312;SDS011;67568;47.438;21.408;2023-02-15T16:23:06;69.07;;;31.42;;
78312;SDS011;67568;47.438;21.408;2023-02-15T16:26:03;59.75;;;30.23;;
78312;SDS011;67568;47.438;21.408;2023-02-15T16:28:51;61.90;;;29.75;;
78312;SDS011;67568;47.438;21.408;2023-02-15T16:31:20;56.53;;;27.00;;
78312;SDS011;67568;47.438;21.408;2023-02-15T16:33:48;53.73;;;26.40;;
78312;SDS011;67568;47.438;21.408;2023-02-15T16:36:22;59.60;;;26.73;;
78312;SDS011;67568;47.438;21.408;2023-02-15T16:43:56;50.63;;;24.02;;
78312;SDS011;67568;47.438;21.408;2023-02-15T16:46:36;72.47;;;27.93;;
78312;SDS011;67568;47.438;21.408;2023-02-15T16:49:17;59.22;;;26.55;;
78312;SDS011;67568;47.438;21.408;2023-02-15T16:51:45;57.55;;;26.45;;
78312;SDS011;67568;47.438;21.408;2023-02-15T16:54:27;60.80;;;25.40;;
78312;SDS011;67568;47.438;21.408;2023-02-15T16:56:55;63.88;;;26.73;;
78312;SDS011;67568;47.438;21.408;2023-02-15T16:59:34;55.97;;;25.27;;
78312;SDS011;67568;47.438;21.408;2023-02-15T17:02:12;61.15;;;26.42;;
78312;SDS011;67568;47.438;21.408;2023-02-15T17:07:39;59.58;;;29.65;;
78312;SDS011;67568;47.438;21.408;2023-02-15T17:13:16;60.60;;;27.97;;
78312;SDS011;67568;47.438;21.408;2023-02-15T17:15:44;61.92;;;28.63;;
78312;SDS011;67568;47.438;21.408;2023-02-15T17:18:43;76.75;;;34.08;;
78312;SDS011;67568;47.438;21.408;2023-02-15T17:21:12;77.18;;;32.40;;
78312;SDS011;67568;47.438;21.408;2023-02-15T17:23:49;75.90;;;33.10;;
78312;SDS011;67568;47.438;21.408;2023-02-15T17:26:24;83.13;;;34.00;;
78312;SDS011;67568;47.438;21.408;2023-02-15T17:29:01;67.85;;;30.13;;
78312;SDS011;67568;47.438;21.408;2023-02-15T17:31:32;68.68;;;30.20;;
78312;SDS011;67568;47.438;21.408;2023-02-15T17:33:59;57.35;;;27.50;;
78312;SDS011;67568;47.438;21.408;2023-02-15T17:36:28;68.13;;;28.88;;
78312;SDS011;67568;47.438;21.408;2023-02-15T17:41:23;51.05;;;27.27;;
78312;SDS011;67568;47.438;21.408;2023-02-15T17:43:56;65.25;;;32.53;;
78312;SDS011;67568;47.438;21.408;2023-02-15T17:46:23;61.53;;;31.48;;
78312;SDS011;67568;47.438;21.408;2023-02-15T17:48:51;74.60;;;33.85;;
78312;SDS011;67568;47.438;21.408;2023-02-15T17:51:20;80.43;;;39.50;;
78312;SDS011;67568;47.438;21.408;2023-02-15T17:53:47;99.35;;;40.25;;
78312;SDS011;67568;47.438;21.408;2023-02-15T17:56:15;91.68;;;43.95;;
78312;SDS011;67568;47.438;21.408;2023-02-15T17:58:41;93.80;;;43.08;;